createdAt,value
2019-02-17T00:00:51.755Z,67.73
2019-02-17T00:03:24.626Z,62.80
2019-02-17T00:05:57.367Z,61.77
2019-02-17T00:08:30.189Z,60.53
2019-02-17T00:11:02.873Z,60.93
2019-02-17T00:13:35.548Z,60.63
2019-02-17T00:16:08.108Z,61.40
2019-02-17T00:18:40.538Z,64.77
2019-02-17T00:21:13.298Z,66.63
2019-02-17T00:23:46.015Z,62.47
2019-02-17T00:26:18.893Z,58.13
2019-02-17T00:28:59.082Z,60.93
2019-02-17T00:31:25.757Z,59.23
2019-02-17T00:33:58.296Z,63.33
2019-02-17T00:36:30.868Z,61.53
2019-02-17T00:39:04.603Z,57.33
2019-02-17T00:41:37.121Z,61.03
2019-02-17T00:44:09.642Z,60.93
2019-02-17T00:46:42.882Z,57.60
2019-02-17T00:49:15.417Z,60.60
2019-02-17T00:51:47.945Z,65.27
2019-02-17T00:54:20.980Z,52.70
2019-02-17T00:56:53.500Z,59.87
2019-02-17T00:59:26.246Z,57.87
2019-02-17T01:01:58.919Z,61.13
2019-02-17T01:04:31.470Z,57.03
2019-02-17T01:07:04.434Z,50.47
2019-02-17T01:09:37.295Z,57.33
2019-02-17T01:12:10.101Z,60.30
2019-02-17T01:14:42.769Z,62.93
2019-02-17T01:17:15.695Z,63.17
2019-02-17T01:19:48.101Z,63.00
2019-02-17T01:22:20.879Z,57.00
2019-02-17T01:24:53.503Z,55.57
2019-02-17T01:27:26.138Z,57.67
2019-02-17T01:29:58.779Z,59.63
2019-02-17T01:32:31.547Z,71.73
2019-02-17T01:35:04.343Z,61.10
2019-02-17T01:37:36.818Z,62.77
2019-02-17T01:40:09.935Z,60.17
2019-02-17T01:42:42.550Z,68.97
2019-02-17T01:45:15.263Z,69.87
2019-02-17T01:47:47.816Z,60.60
2019-02-17T01:50:20.218Z,62.77
2019-02-17T01:52:52.698Z,66.20
2019-02-17T01:55:25.384Z,65.27
2019-02-17T01:57:58.814Z,71.70
2019-02-17T02:00:31.392Z,71.40
2019-02-17T02:03:04.051Z,70.27
2019-02-17T02:05:36.771Z,66.00
2019-02-17T02:08:09.435Z,79.47
2019-02-17T02:10:42.078Z,76.17
2019-02-17T02:13:14.885Z,76.23
2019-02-17T02:15:47.353Z,76.13
2019-02-17T02:18:20.776Z,70.07
2019-02-17T02:20:53.254Z,66.93
2019-02-17T02:23:25.796Z,69.13
2019-02-17T02:25:58.345Z,64.90
2019-02-17T02:28:30.663Z,73.20
2019-02-17T02:31:03.361Z,68.77
2019-02-17T02:33:35.837Z,61.30
2019-02-17T02:36:08.396Z,65.73
2019-02-17T02:38:41.030Z,75.90
2019-02-17T02:41:13.473Z,69.13
2019-02-17T02:43:46.275Z,75.80
2019-02-17T02:46:18.969Z,71.93
2019-02-17T02:48:51.638Z,75.40
2019-02-17T02:51:24.326Z,73.57
2019-02-17T02:53:56.802Z,71.47
2019-02-17T02:56:29.893Z,75.03
2019-02-17T02:59:02.254Z,87.23
2019-02-17T03:01:34.742Z,92.33
2019-02-17T03:04:07.405Z,93.37
2019-02-17T03:06:47.409Z,74.63
2019-02-17T03:09:20.033Z,84.17
2019-02-17T03:11:52.513Z,104.43
2019-02-17T03:14:25.187Z,97.87
2019-02-17T03:17:00.517Z,93.37
2019-02-17T03:19:32.568Z,89.93
2019-02-17T03:22:05.275Z,79.80
2019-02-17T03:24:37.780Z,70.10
2019-02-17T03:27:10.426Z,76.07
2019-02-17T03:29:43.041Z,75.57
2019-02-17T03:32:15.617Z,69.70
2019-02-17T03:34:48.056Z,71.27
2019-02-17T03:37:20.555Z,70.17
2019-02-17T03:39:53.419Z,71.10
2019-02-17T03:42:28.381Z,69.30
2019-02-17T03:45:01.185Z,70.83
2019-02-17T03:47:33.731Z,70.83
2019-02-17T03:50:06.855Z,69.93
2019-02-17T03:52:39.752Z,74.70
2019-02-17T03:55:12.420Z,66.93
2019-02-17T03:57:44.934Z,69.13
2019-02-17T04:00:17.725Z,72.40
2019-02-17T04:02:50.266Z,65.57
2019-02-17T04:05:23.224Z,63.20
2019-02-17T04:07:55.946Z,71.53
2019-02-17T04:10:28.574Z,69.50
2019-02-17T04:13:01.244Z,69.40
2019-02-17T04:15:33.845Z,69.43
2019-02-17T04:18:06.237Z,70.43
2019-02-17T04:20:38.818Z,69.50
2019-02-17T04:23:11.967Z,72.63
2019-02-17T04:25:44.753Z,73.20
2019-02-17T04:28:17.553Z,73.87
2019-02-17T04:30:50.150Z,71.73
2019-02-17T04:33:24.221Z,70.33
2019-02-17T04:35:56.786Z,71.33
2019-02-17T04:38:29.708Z,72.00
2019-02-17T04:41:02.120Z,61.33
2019-02-17T04:43:34.675Z,67.30
2019-02-17T04:46:07.079Z,71.67
2019-02-17T04:48:39.689Z,68.80
2019-02-17T04:51:12.345Z,69.03
2019-02-17T04:53:45.267Z,73.50
2019-02-17T04:56:18.072Z,73.33
2019-02-17T04:58:50.761Z,76.40
2019-02-17T05:01:23.425Z,76.53
2019-02-17T05:03:55.845Z,75.57
2019-02-17T05:06:28.171Z,79.03
2019-02-17T05:09:00.650Z,83.13
2019-02-17T05:11:33.221Z,86.33
2019-02-17T05:14:05.793Z,79.07
2019-02-17T05:16:38.343Z,85.70
2019-02-17T05:19:11.013Z,79.87
2019-02-17T05:21:43.544Z,76.23
2019-02-17T05:24:15.916Z,83.33
2019-02-17T05:26:48.365Z,78.07
2019-02-17T05:29:22.444Z,82.43
2019-02-17T05:31:55.242Z,81.27
2019-02-17T05:34:27.914Z,84.07
2019-02-17T05:37:00.261Z,81.23
2019-02-17T05:39:32.834Z,80.33
2019-02-17T05:42:05.542Z,82.80
2019-02-17T05:44:37.990Z,81.23
2019-02-17T05:47:10.671Z,76.83
2019-02-17T05:49:43.117Z,81.93
2019-02-17T05:52:15.549Z,82.40
2019-02-17T05:54:50.478Z,81.10
2019-02-17T05:57:23.247Z,74.03
2019-02-17T05:59:57.341Z,85.07
2019-02-17T06:02:30.083Z,77.23
2019-02-17T06:05:02.551Z,81.87
2019-02-17T06:07:35.771Z,81.90
2019-02-17T06:10:09.368Z,82.83
2019-02-17T06:12:42.191Z,79.53
2019-02-17T06:15:14.584Z,82.87
2019-02-17T06:17:47.197Z,79.83
2019-02-17T06:20:20.839Z,89.03
2019-02-17T06:22:53.478Z,83.70
2019-02-17T06:25:26.108Z,78.00
2019-02-17T06:27:58.674Z,74.17
2019-02-17T06:30:31.181Z,76.23
2019-02-17T06:33:04.127Z,72.93
2019-02-17T06:35:36.529Z,73.97
2019-02-17T06:38:09.359Z,69.50
2019-02-17T06:40:42.077Z,71.67
2019-02-17T06:43:14.592Z,67.73
2019-02-17T06:45:47.034Z,66.97
2019-02-17T06:48:19.727Z,72.80
2019-02-17T06:50:52.385Z,65.17
2019-02-17T06:53:25.000Z,66.10
2019-02-17T06:56:02.147Z,66.37
2019-02-17T06:58:34.714Z,80.47
2019-02-17T07:01:07.223Z,72.37
2019-02-17T07:03:39.958Z,75.37
2019-02-17T07:06:22.103Z,71.17
2019-02-17T07:08:54.671Z,68.67
2019-02-17T07:11:27.457Z,71.00
2019-02-17T07:13:59.954Z,66.70
2019-02-17T07:16:32.425Z,62.03
2019-02-17T07:19:05.283Z,63.20
2019-02-17T07:21:37.937Z,61.23
2019-02-17T07:24:10.660Z,65.63
2019-02-17T07:26:43.349Z,64.70
2019-02-17T07:29:16.838Z,64.90
2019-02-17T07:31:49.819Z,65.03
2019-02-17T07:34:22.534Z,66.70
2019-02-17T07:36:55.090Z,80.93
2019-02-17T07:39:27.804Z,96.73
2019-02-17T07:42:00.356Z,76.80
2019-02-17T07:44:32.992Z,71.57
2019-02-17T07:47:05.863Z,66.20
2019-02-17T07:49:38.543Z,62.90
2019-02-17T07:52:11.365Z,63.53
2019-02-17T07:54:43.950Z,66.80
2019-02-17T07:57:16.490Z,69.47
2019-02-17T07:59:48.929Z,67.40
2019-02-17T08:02:21.403Z,62.93
2019-02-17T08:04:54.001Z,62.33
2019-02-17T08:07:26.454Z,60.83
2019-02-17T08:10:00.680Z,60.88
2019-02-17T08:12:32.995Z,57.88
2019-02-17T08:15:07.303Z,58.13
2019-02-17T08:17:40.340Z,53.87
2019-02-17T08:20:13.027Z,54.25
2019-02-17T08:22:45.375Z,50.78
2019-02-17T08:25:21.921Z,50.85
2019-02-17T08:27:52.559Z,51.95
2019-02-17T08:30:25.252Z,59.00
2019-02-17T08:32:58.079Z,53.48
2019-02-17T08:35:30.675Z,56.13
2019-02-17T08:38:03.664Z,53.17
2019-02-17T08:40:36.544Z,58.33
2019-02-17T08:43:09.138Z,50.23
2019-02-17T08:45:41.746Z,52.35
2019-02-17T08:48:14.509Z,49.85
2019-02-17T08:50:47.419Z,50.25
2019-02-17T08:53:19.959Z,55.67
2019-02-17T08:55:52.644Z,57.25
2019-02-17T08:58:25.322Z,54.67
2019-02-17T09:00:57.823Z,51.90
2019-02-17T09:03:30.489Z,56.00
2019-02-17T09:06:04.757Z,48.83
2019-02-17T09:08:37.648Z,47.90
2019-02-17T09:11:10.409Z,52.50
2019-02-17T09:13:42.926Z,52.00
2019-02-17T09:16:15.530Z,47.13
2019-02-17T09:18:48.024Z,50.12
2019-02-17T09:21:20.499Z,52.10
2019-02-17T09:23:53.026Z,51.18
2019-02-17T09:26:25.828Z,46.88
2019-02-17T09:28:58.612Z,50.92
2019-02-17T09:31:31.247Z,47.15
2019-02-17T09:34:03.715Z,48.70
2019-02-17T09:36:37.507Z,48.90
2019-02-17T09:39:12.020Z,48.60
2019-02-17T09:41:55.372Z,46.58
2019-02-17T09:44:28.038Z,49.95
2019-02-17T09:47:00.697Z,46.42
2019-02-17T09:49:37.128Z,47.10
2019-02-17T09:52:09.590Z,52.23
2019-02-17T09:54:42.580Z,49.35
2019-02-17T09:57:15.198Z,50.83
2019-02-17T09:59:47.800Z,51.75
2019-02-17T10:02:26.462Z,51.63
2019-02-17T10:04:54.681Z,48.20
2019-02-17T10:07:27.186Z,49.87
2019-02-17T10:10:00.030Z,55.53
2019-02-17T10:12:32.425Z,52.23
2019-02-17T10:15:05.400Z,52.30
2019-02-17T10:17:38.166Z,48.97
2019-02-17T10:20:12.544Z,51.83
2019-02-17T10:22:45.122Z,52.47
2019-02-17T10:25:17.830Z,48.53
2019-02-17T10:27:50.536Z,46.97
2019-02-17T10:30:23.979Z,51.57
2019-02-17T10:32:56.645Z,48.97
2019-02-17T10:35:29.223Z,51.30
2019-02-17T10:38:01.600Z,51.37
2019-02-17T10:40:34.484Z,49.20
2019-02-17T10:43:07.023Z,50.87
2019-02-17T10:45:39.783Z,51.05
2019-02-17T10:48:12.566Z,50.83
2019-02-17T10:50:45.592Z,48.30
2019-02-17T10:53:18.440Z,56.92
2019-02-17T10:55:51.107Z,51.68
2019-02-17T10:58:23.899Z,51.63
2019-02-17T11:00:56.620Z,48.63
2019-02-17T11:03:29.284Z,53.60
2019-02-17T11:06:02.156Z,52.58
2019-02-17T11:08:34.772Z,54.95
2019-02-17T11:11:07.256Z,49.95
2019-02-17T11:13:39.983Z,48.33
2019-02-17T11:16:12.752Z,47.25
2019-02-17T11:18:45.446Z,51.68
2019-02-17T11:21:18.202Z,48.20
2019-02-17T11:23:50.860Z,51.18
2019-02-17T11:26:23.536Z,50.70
2019-02-17T11:28:56.055Z,54.58
2019-02-17T11:31:28.894Z,48.85
2019-02-17T11:34:02.034Z,51.15
2019-02-17T11:36:34.677Z,49.20
2019-02-17T11:39:17.102Z,47.35
2019-02-17T11:41:49.655Z,47.87
2019-02-17T11:44:22.634Z,49.07
2019-02-17T11:46:56.641Z,46.10
2019-02-17T11:49:29.112Z,49.40
2019-02-17T11:52:02.044Z,47.93
2019-02-17T11:54:34.716Z,45.40
2019-02-17T11:57:07.239Z,51.43
2019-02-17T11:59:39.583Z,47.93
2019-02-17T12:02:12.265Z,43.73
2019-02-17T12:04:45.021Z,48.10
2019-02-17T12:07:17.735Z,50.80
2019-02-17T12:09:50.394Z,48.20
2019-02-17T12:12:22.953Z,44.37
2019-02-17T12:14:55.753Z,46.43
2019-02-17T12:17:28.787Z,45.60
2019-02-17T12:20:19.775Z,42.10
2019-02-17T12:22:57.976Z,49.60
2019-02-17T12:25:36.680Z,51.50
2019-02-17T12:28:17.805Z,49.33
2019-02-17T12:30:51.857Z,52.97
2019-02-17T12:33:24.547Z,52.67
2019-02-17T12:35:57.518Z,50.40
2019-02-17T12:38:30.320Z,47.03
2019-02-17T12:41:02.739Z,43.67
2019-02-17T12:43:35.452Z,46.10
2019-02-17T12:46:08.454Z,47.73
2019-02-17T12:48:41.346Z,46.20
2019-02-17T12:51:16.095Z,45.07
2019-02-17T12:53:48.995Z,43.17
2019-02-17T12:56:21.740Z,43.17
2019-02-17T12:58:54.547Z,42.53
2019-02-17T13:01:29.426Z,43.60
2019-02-17T13:04:02.222Z,46.57
2019-02-17T13:06:34.923Z,42.07
2019-02-17T13:09:09.487Z,46.50
2019-02-17T13:11:42.923Z,46.33
2019-02-17T13:14:15.621Z,46.37
2019-02-17T13:16:48.223Z,43.33
2019-02-17T13:19:21.076Z,45.00
2019-02-17T13:21:53.534Z,44.00
2019-02-17T13:24:27.623Z,46.07
2019-02-17T13:27:00.661Z,46.20
2019-02-17T13:29:33.279Z,47.03
2019-02-17T13:32:05.660Z,48.30
2019-02-17T13:34:38.935Z,47.07
2019-02-17T13:37:11.606Z,45.87
2019-02-17T13:39:45.713Z,49.40
2019-02-17T13:42:18.423Z,48.57
2019-02-17T13:44:51.074Z,48.87
2019-02-17T13:47:23.456Z,46.77
2019-02-17T13:49:56.021Z,45.57
2019-02-17T13:52:32.196Z,49.10
2019-02-17T13:55:05.041Z,44.57
2019-02-17T13:57:37.572Z,50.17
2019-02-17T14:00:13.672Z,49.63
2019-02-17T14:02:46.308Z,51.43
2019-02-17T14:05:19.065Z,48.83
2019-02-17T14:07:51.707Z,54.60
2019-02-17T14:10:24.401Z,52.53
2019-02-17T14:12:56.949Z,45.63
2019-02-17T14:15:29.675Z,48.97
2019-02-17T14:18:02.298Z,48.30
2019-02-17T14:20:34.850Z,49.83
2019-02-17T14:23:07.512Z,43.10
2019-02-17T14:25:40.153Z,46.40
2019-02-17T14:28:12.710Z,45.87
2019-02-17T14:30:45.278Z,48.40
2019-02-17T14:33:18.052Z,52.43
2019-02-17T14:36:09.632Z,47.60
2019-02-17T14:38:42.197Z,48.83
2019-02-17T14:41:14.704Z,49.83
2019-02-17T14:43:47.272Z,49.33
2019-02-17T14:46:19.815Z,52.73
2019-02-17T14:48:52.389Z,52.57
2019-02-17T14:51:24.965Z,44.27
2019-02-17T14:53:57.613Z,44.93
2019-02-17T14:56:33.163Z,50.67
2019-02-17T14:59:05.798Z,46.00
2019-02-17T15:01:46.937Z,47.60
2019-02-17T15:04:20.078Z,45.73
2019-02-17T15:06:52.718Z,53.00
2019-02-17T15:09:25.276Z,51.47
2019-02-17T15:11:57.832Z,50.10
2019-02-17T15:14:30.750Z,51.47
2019-02-17T15:17:03.210Z,46.23
2019-02-17T15:19:48.040Z,52.47
2019-02-17T15:22:21.927Z,49.03
2019-02-17T15:25:02.503Z,48.83
2019-02-17T15:27:35.148Z,46.90
2019-02-17T15:30:09.948Z,52.40
2019-02-17T15:32:42.874Z,49.37
2019-02-17T15:35:15.914Z,51.00
2019-02-17T15:37:50.024Z,52.13
2019-02-17T15:40:23.527Z,45.63
2019-02-17T15:42:56.114Z,49.27
2019-02-17T15:45:28.888Z,50.60
2019-02-17T15:48:14.029Z,85.73
2019-02-17T15:50:46.587Z,74.70
2019-02-17T15:53:19.074Z,65.63
2019-02-17T15:55:51.994Z,58.43
2019-02-17T15:58:25.016Z,50.63
2019-02-17T16:00:58.584Z,45.60
2019-02-17T16:03:31.371Z,49.23
2019-02-17T16:06:03.785Z,49.83
2019-02-17T16:08:36.453Z,46.17
2019-02-17T16:11:09.127Z,46.37
2019-02-17T16:13:41.367Z,45.33
2019-02-17T16:16:14.042Z,44.60
2019-02-17T16:18:46.558Z,45.20
2019-02-17T16:21:19.071Z,44.60
2019-02-17T16:23:51.648Z,48.80
2019-02-17T16:26:24.413Z,50.43
2019-02-17T16:28:57.388Z,49.97
2019-02-17T16:31:30.033Z,52.77
2019-02-17T16:34:02.695Z,49.83
2019-02-17T16:36:35.374Z,110.63
2019-02-17T16:39:13.432Z,59.73
2019-02-17T16:41:46.113Z,75.57
2019-02-17T16:44:18.942Z,63.73
2019-02-17T16:46:51.667Z,59.10
2019-02-17T16:49:24.197Z,57.00
2019-02-17T16:51:57.155Z,55.87
2019-02-17T16:54:29.763Z,55.73
2019-02-17T16:57:02.398Z,54.53
2019-02-17T16:59:35.163Z,56.77
2019-02-17T17:02:08.154Z,57.00
2019-02-17T17:04:48.025Z,58.63
2019-02-17T17:07:15.256Z,70.20
2019-02-17T17:09:47.786Z,62.53
2019-02-17T17:12:20.465Z,62.27
2019-02-17T17:14:55.706Z,59.63
2019-02-17T17:17:28.391Z,55.47
2019-02-17T17:20:01.115Z,56.03
2019-02-17T17:22:33.917Z,58.80
2019-02-17T17:25:07.185Z,50.47
2019-02-17T17:27:58.835Z,49.67
2019-02-17T17:30:42.602Z,52.23
2019-02-17T17:33:15.297Z,77.97
2019-02-17T17:35:58.674Z,62.33
2019-02-17T17:38:31.364Z,58.40
2019-02-17T17:41:03.767Z,56.73
2019-02-17T17:43:36.500Z,131.70
2019-02-17T17:46:09.403Z,81.23
2019-02-17T17:48:42.029Z,57.60
2019-02-17T17:51:14.467Z,55.43
2019-02-17T17:53:47.509Z,50.03
2019-02-17T17:56:20.300Z,54.07
2019-02-17T17:58:53.226Z,55.07
2019-02-17T18:01:25.936Z,54.33
2019-02-17T18:03:58.550Z,53.73
2019-02-17T18:06:34.458Z,52.73
2019-02-17T18:09:09.030Z,54.60
2019-02-17T18:11:45.680Z,56.07
2019-02-17T18:14:29.363Z,56.73
2019-02-17T18:17:05.734Z,55.43
2019-02-17T18:19:42.406Z,55.27
2019-02-17T18:22:28.554Z,56.50
2019-02-17T18:25:01.208Z,55.37
2019-02-17T18:27:41.875Z,54.17
2019-02-17T18:30:26.000Z,54.13
2019-02-17T18:32:58.193Z,52.67
2019-02-17T18:35:30.892Z,77.20
2019-02-17T18:38:03.309Z,61.93
2019-02-17T18:40:44.999Z,51.90
2019-02-17T18:43:19.121Z,54.07
2019-02-17T18:45:54.239Z,59.10
2019-02-17T18:48:29.651Z,54.87
2019-02-17T18:51:06.273Z,61.63
2019-02-17T18:53:40.714Z,49.60
2019-02-17T18:56:15.868Z,49.33
2019-02-17T18:58:48.504Z,52.47
2019-02-17T19:01:31.569Z,55.07
2019-02-17T19:04:06.957Z,46.30
2019-02-17T19:06:40.457Z,47.47
2019-02-17T19:09:16.216Z,48.80
2019-02-17T19:11:54.892Z,53.40
2019-02-17T19:14:32.640Z,70.50
2019-02-17T19:17:08.689Z,58.40
2019-02-17T19:20:02.023Z,53.40
2019-02-17T19:22:36.865Z,47.73
2019-02-17T19:25:11.388Z,52.43
2019-02-17T19:27:44.139Z,48.20
2019-02-17T19:30:17.467Z,109.67
2019-02-17T19:32:50.193Z,68.07
2019-02-17T19:35:25.562Z,56.83
2019-02-17T19:37:58.196Z,74.17
2019-02-17T19:40:32.554Z,50.63
2019-02-17T19:43:05.132Z,54.27
2019-02-17T19:45:37.686Z,51.63
2019-02-17T19:48:11.490Z,54.10
2019-02-17T19:51:05.319Z,153.20
2019-02-17T19:53:39.214Z,60.23
2019-02-17T19:56:13.612Z,50.87
2019-02-17T19:58:59.286Z,50.23
2019-02-17T20:01:40.994Z,53.77
2019-02-17T20:04:33.862Z,50.13
2019-02-17T20:07:17.397Z,53.60
2019-02-17T20:09:51.388Z,58.03
2019-02-17T20:12:27.192Z,51.93
2019-02-17T20:14:59.923Z,58.33
2019-02-17T20:17:32.773Z,46.67
2019-02-17T20:20:12.619Z,56.00
2019-02-17T20:22:47.313Z,51.30
2019-02-17T20:25:20.239Z,52.80
2019-02-17T20:27:52.881Z,58.23
2019-02-17T20:30:27.460Z,55.87
2019-02-17T20:33:00.381Z,75.17
2019-02-17T20:35:33.484Z,56.00
2019-02-17T20:38:07.996Z,52.97
2019-02-17T20:40:43.584Z,48.23
2019-02-17T20:43:19.070Z,50.47
2019-02-17T20:45:51.481Z,54.43
2019-02-17T20:48:26.958Z,58.43
2019-02-17T20:51:02.082Z,67.80
2019-02-17T20:53:39.503Z,59.87
2019-02-17T20:56:13.921Z,71.43
2019-02-17T20:58:46.450Z,148.37
2019-02-17T21:01:22.951Z,66.87
2019-02-17T21:03:58.805Z,54.50
2019-02-17T21:06:33.862Z,52.43
2019-02-17T21:09:07.709Z,48.17
2019-02-17T21:11:42.820Z,49.33
2019-02-17T21:14:15.479Z,52.03
2019-02-17T21:16:50.027Z,74.23
2019-02-17T21:19:23.686Z,99.30
2019-02-17T21:21:57.336Z,110.50
2019-02-17T21:24:29.906Z,118.97
2019-02-17T21:27:03.945Z,94.57
2019-02-17T21:29:36.462Z,93.90
2019-02-17T21:32:16.694Z,76.80
2019-02-17T21:34:50.900Z,76.77
2019-02-17T21:37:23.518Z,67.93
2019-02-17T21:39:56.324Z,63.60
2019-02-17T21:42:29.389Z,64.13
2019-02-17T21:45:01.961Z,63.73
2019-02-17T21:47:35.344Z,67.10
2019-02-17T21:50:09.382Z,68.70
2019-02-17T21:52:42.414Z,71.03
2019-02-17T21:55:15.498Z,65.40
2019-02-17T21:57:48.166Z,67.57
2019-02-17T22:00:21.073Z,59.57
2019-02-17T22:02:53.810Z,60.60
2019-02-17T22:05:26.792Z,59.93
2019-02-17T22:07:59.546Z,54.60
2019-02-17T22:10:32.250Z,57.03
2019-02-17T22:13:05.234Z,62.40
2019-02-17T22:15:37.847Z,53.77
2019-02-17T22:18:10.433Z,57.13
2019-02-17T22:20:42.970Z,59.07
2019-02-17T22:23:15.626Z,90.13
2019-02-17T22:25:48.015Z,69.13
2019-02-17T22:28:20.423Z,59.50
2019-02-17T22:30:53.522Z,58.90
2019-02-17T22:33:27.624Z,60.27
2019-02-17T22:36:03.220Z,54.37
2019-02-17T22:38:35.761Z,52.40
2019-02-17T22:41:08.409Z,150.10
2019-02-17T22:43:41.496Z,96.30
2019-02-17T22:46:14.067Z,63.07
2019-02-17T22:48:46.822Z,52.63
2019-02-17T22:51:19.458Z,56.23
2019-02-17T22:53:54.943Z,53.30
2019-02-17T22:56:27.372Z,55.27
2019-02-17T22:59:00.067Z,51.30
2019-02-17T23:01:34.058Z,61.63
2019-02-17T23:04:06.564Z,65.00
2019-02-17T23:06:39.481Z,59.73
2019-02-17T23:09:12.185Z,54.73
2019-02-17T23:11:44.915Z,60.70
2019-02-17T23:14:17.844Z,56.77
2019-02-17T23:16:50.174Z,59.07
2019-02-17T23:19:22.611Z,59.33
2019-02-17T23:21:55.177Z,59.03
2019-02-17T23:24:30.550Z,60.73
2019-02-17T23:27:04.141Z,58.67
2019-02-17T23:29:36.865Z,56.90
2019-02-17T23:32:09.575Z,60.60
2019-02-17T23:34:42.308Z,60.90
2019-02-17T23:37:17.541Z,57.63
2019-02-17T23:39:49.986Z,62.63
2019-02-17T23:42:22.816Z,63.13
2019-02-17T23:44:55.429Z,62.60
2019-02-17T23:47:28.048Z,57.40
2019-02-17T23:50:01.138Z,60.87
2019-02-17T23:52:33.829Z,61.47
2019-02-17T23:55:07.189Z,67.03
2019-02-17T23:57:40.813Z,67.10
